sensor_id;sensor_type;location;lat;lon;timestamp;P1;durP1;ratioP1;P2;durP2;ratioP2
485;SDS011;229;48.734;9.340;2022-09-03T00:02:08;5.83;;;3.30;;
485;SDS011;229;48.734;9.340;2022-09-03T00:04:41;4.27;;;3.23;;
485;SDS011;229;48.734;9.340;2022-09-03T00:07:12;7.07;;;3.57;;
485;SDS011;229;48.734;9.340;2022-09-03T00:09:42;3.50;;;3.30;;
485;SDS011;229;48.734;9.340;2022-09-03T00:12:15;4.13;;;3.37;;
485;SDS011;229;48.734;9.340;2022-09-03T00:14:45;3.33;;;2.87;;
485;SDS011;229;48.734;9.340;2022-09-03T00:17:14;4.70;;;2.80;;
485;SDS011;229;48.734;9.340;2022-09-03T00:19:43;3.53;;;3.33;;
485;SDS011;229;48.734;9.340;2022-09-03T00:22:13;3.87;;;3.40;;
485;SDS011;229;48.734;9.340;2022-09-03T00:24:42;4.20;;;3.50;;
485;SDS011;229;48.734;9.340;2022-09-03T00:27:10;3.27;;;3.07;;
485;SDS011;229;48.734;9.340;2022-09-03T00:29:40;3.30;;;3.10;;
485;SDS011;229;48.734;9.340;2022-09-03T00:32:12;3.57;;;2.83;;
485;SDS011;229;48.734;9.340;2022-09-03T00:34:42;3.70;;;3.23;;
485;SDS011;229;48.734;9.340;2022-09-03T00:37:10;3.50;;;3.30;;
485;SDS011;229;48.734;9.340;2022-09-03T00:39:37;3.93;;;3.73;;
485;SDS011;229;48.734;9.340;2022-09-03T00:42:12;3.83;;;3.63;;
485;SDS011;229;48.734;9.340;2022-09-03T00:44:51;4.53;;;3.80;;
485;SDS011;229;48.734;9.340;2022-09-03T00:47:23;3.60;;;3.40;;
485;SDS011;229;48.734;9.340;2022-09-03T00:49:56;6.13;;;3.80;;
485;SDS011;229;48.734;9.340;2022-09-03T00:52:31;4.13;;;3.57;;
485;SDS011;229;48.734;9.340;2022-09-03T00:55:02;3.37;;;3.17;;
485;SDS011;229;48.734;9.340;2022-09-03T00:57:34;3.10;;;2.90;;
485;SDS011;229;48.734;9.340;2022-09-03T01:00:06;5.07;;;3.57;;
485;SDS011;229;48.734;9.340;2022-09-03T01:02:39;4.50;;;3.30;;
485;SDS011;229;48.734;9.340;2022-09-03T01:05:12;3.67;;;2.90;;
485;SDS011;229;48.734;9.340;2022-09-03T01:07:43;3.63;;;3.43;;
485;SDS011;229;48.734;9.340;2022-09-03T01:10:14;3.83;;;3.10;;
485;SDS011;229;48.734;9.340;2022-09-03T01:12:46;3.40;;;3.30;;
485;SDS011;229;48.734;9.340;2022-09-03T01:15:18;3.13;;;2.93;;
485;SDS011;229;48.734;9.340;2022-09-03T01:17:55;3.67;;;3.00;;
485;SDS011;229;48.734;9.340;2022-09-03T01:20:31;3.90;;;3.67;;
485;SDS011;229;48.734;9.340;2022-09-03T01:23:23;3.63;;;3.20;;
485;SDS011;229;48.734;9.340;2022-09-03T01:25:54;3.17;;;2.97;;
485;SDS011;229;48.734;9.340;2022-09-03T01:28:34;5.57;;;3.40;;
485;SDS011;229;48.734;9.340;2022-09-03T01:31:12;4.20;;;3.77;;
485;SDS011;229;48.734;9.340;2022-09-03T01:33:43;3.83;;;3.47;;
485;SDS011;229;48.734;9.340;2022-09-03T01:36:15;4.30;;;3.60;;
485;SDS011;229;48.734;9.340;2022-09-03T01:38:46;3.17;;;3.00;;
485;SDS011;229;48.734;9.340;2022-09-03T01:41:18;3.30;;;3.10;;
485;SDS011;229;48.734;9.340;2022-09-03T01:44:08;5.63;;;3.20;;
485;SDS011;229;48.734;9.340;2022-09-03T01:46:37;4.57;;;3.33;;
485;SDS011;229;48.734;9.340;2022-09-03T01:49:08;4.73;;;3.40;;
485;SDS011;229;48.734;9.340;2022-09-03T01:51:40;4.20;;;3.50;;
485;SDS011;229;48.734;9.340;2022-09-03T01:54:22;3.77;;;2.73;;
485;SDS011;229;48.734;9.340;2022-09-03T01:59:40;3.57;;;3.10;;
485;SDS011;229;48.734;9.340;2022-09-03T02:02:10;3.50;;;3.37;;
485;SDS011;229;48.734;9.340;2022-09-03T02:04:53;3.37;;;3.17;;
485;SDS011;229;48.734;9.340;2022-09-03T02:07:21;4.03;;;3.40;;
485;SDS011;229;48.734;9.340;2022-09-03T02:09:49;2.87;;;2.63;;
485;SDS011;229;48.734;9.340;2022-09-03T02:12:17;3.90;;;2.90;;
485;SDS011;229;48.734;9.340;2022-09-03T02:14:47;4.47;;;3.70;;
485;SDS011;229;48.734;9.340;2022-09-03T02:17:14;3.30;;;3.10;;
485;SDS011;229;48.734;9.340;2022-09-03T02:19:41;3.40;;;3.20;;
485;SDS011;229;48.734;9.340;2022-09-03T02:22:09;4.70;;;3.07;;
485;SDS011;229;48.734;9.340;2022-09-03T02:24:38;4.30;;;3.60;;
485;SDS011;229;48.734;9.340;2022-09-03T02:27:05;6.63;;;3.10;;
485;SDS011;229;48.734;9.340;2022-09-03T02:29:33;3.23;;;3.03;;
485;SDS011;229;48.734;9.340;2022-09-03T02:32:01;4.10;;;3.30;;
485;SDS011;229;48.734;9.340;2022-09-03T02:34:29;3.63;;;3.40;;
485;SDS011;229;48.734;9.340;2022-09-03T02:36:56;4.00;;;3.33;;
485;SDS011;229;48.734;9.340;2022-09-03T02:39:23;4.45;;;3.80;;
485;SDS011;229;48.734;9.340;2022-09-03T02:41:53;4.03;;;3.30;;
485;SDS011;229;48.734;9.340;2022-09-03T02:44:23;3.03;;;2.83;;
485;SDS011;229;48.734;9.340;2022-09-03T02:46:56;5.78;;;3.05;;
485;SDS011;229;48.734;9.340;2022-09-03T02:49:25;3.17;;;3.00;;
485;SDS011;229;48.734;9.340;2022-09-03T02:51:56;3.45;;;3.05;;
485;SDS011;229;48.734;9.340;2022-09-03T02:54:24;3.95;;;3.22;;
485;SDS011;229;48.734;9.340;2022-09-03T02:56:52;3.13;;;2.92;;
485;SDS011;229;48.734;9.340;2022-09-03T02:59:19;3.90;;;3.35;;
485;SDS011;229;48.734;9.340;2022-09-03T03:01:47;3.25;;;3.05;;
485;SDS011;229;48.734;9.340;2022-09-03T03:04:15;5.57;;;3.00;;
485;SDS011;229;48.734;9.340;2022-09-03T03:06:43;4.22;;;3.00;;
485;SDS011;229;48.734;9.340;2022-09-03T03:09:10;3.78;;;3.50;;
485;SDS011;229;48.734;9.340;2022-09-03T03:11:38;3.63;;;3.28;;
485;SDS011;229;48.734;9.340;2022-09-03T03:14:05;3.92;;;3.35;;
485;SDS011;229;48.734;9.340;2022-09-03T03:16:32;4.68;;;3.72;;
485;SDS011;229;48.734;9.340;2022-09-03T03:18:59;3.67;;;3.08;;
485;SDS011;229;48.734;9.340;2022-09-03T03:21:27;4.10;;;3.30;;
485;SDS011;229;48.734;9.340;2022-09-03T03:23:56;3.55;;;3.35;;
485;SDS011;229;48.734;9.340;2022-09-03T03:26:23;3.28;;;3.08;;
485;SDS011;229;48.734;9.340;2022-09-03T03:28:54;3.50;;;3.30;;
485;SDS011;229;48.734;9.340;2022-09-03T03:31:22;4.38;;;3.40;;
485;SDS011;229;48.734;9.340;2022-09-03T03:33:50;3.65;;;3.50;;
485;SDS011;229;48.734;9.340;2022-09-03T03:36:18;3.05;;;2.85;;
485;SDS011;229;48.734;9.340;2022-09-03T03:38:45;3.33;;;3.17;;
485;SDS011;229;48.734;9.340;2022-09-03T03:41:15;4.10;;;3.65;;
485;SDS011;229;48.734;9.340;2022-09-03T03:43:42;3.47;;;3.28;;
485;SDS011;229;48.734;9.340;2022-09-03T03:46:09;3.78;;;3.40;;
485;SDS011;229;48.734;9.340;2022-09-03T03:48:37;3.53;;;3.33;;
485;SDS011;229;48.734;9.340;2022-09-03T03:51:05;3.60;;;3.40;;
485;SDS011;229;48.734;9.340;2022-09-03T03:53:33;5.05;;;3.80;;
485;SDS011;229;48.734;9.340;2022-09-03T03:56:01;3.42;;;3.17;;
485;SDS011;229;48.734;9.340;2022-09-03T03:58:30;3.78;;;3.22;;
485;SDS011;229;48.734;9.340;2022-09-03T04:01:02;6.30;;;4.30;;
485;SDS011;229;48.734;9.340;2022-09-03T04:03:30;3.47;;;3.17;;
485;SDS011;229;48.734;9.340;2022-09-03T04:05:57;2.95;;;2.80;;
485;SDS011;229;48.734;9.340;2022-09-03T04:08:25;4.57;;;3.45;;
485;SDS011;229;48.734;9.340;2022-09-03T04:10:52;4.20;;;3.30;;
485;SDS011;229;48.734;9.340;2022-09-03T04:13:19;3.70;;;3.20;;
485;SDS011;229;48.734;9.340;2022-09-03T04:15:48;5.05;;;3.17;;
485;SDS011;229;48.734;9.340;2022-09-03T04:18:15;5.60;;;3.67;;
485;SDS011;229;48.734;9.340;2022-09-03T04:20:42;4.47;;;3.42;;
485;SDS011;229;48.734;9.340;2022-09-03T04:23:09;3.50;;;3.30;;
485;SDS011;229;48.734;9.340;2022-09-03T04:25:37;10.65;;;3.70;;
485;SDS011;229;48.734;9.340;2022-09-03T04:28:05;4.53;;;4.22;;
485;SDS011;229;48.734;9.340;2022-09-03T04:30:33;5.20;;;3.65;;
485;SDS011;229;48.734;9.340;2022-09-03T04:33:01;4.30;;;4.00;;
485;SDS011;229;48.734;9.340;2022-09-03T04:35:28;4.80;;;4.50;;
485;SDS011;229;48.734;9.340;2022-09-03T04:37:57;4.40;;;4.10;;
485;SDS011;229;48.734;9.340;2022-09-03T04:40:25;4.55;;;4.25;;
485;SDS011;229;48.734;9.340;2022-09-03T04:42:55;5.60;;;4.88;;
485;SDS011;229;48.734;9.340;2022-09-03T04:45:23;4.53;;;4.22;;
485;SDS011;229;48.734;9.340;2022-09-03T04:47:57;3.95;;;3.78;;
485;SDS011;229;48.734;9.340;2022-09-03T04:50:26;4.70;;;4.40;;
485;SDS011;229;48.734;9.340;2022-09-03T04:52:54;4.10;;;3.90;;
485;SDS011;229;48.734;9.340;2022-09-03T04:55:22;4.40;;;4.10;;
485;SDS011;229;48.734;9.340;2022-09-03T04:57:49;4.70;;;4.40;;
485;SDS011;229;48.734;9.340;2022-09-03T05:00:17;4.07;;;3.88;;
485;SDS011;229;48.734;9.340;2022-09-03T05:02:44;6.18;;;5.05;;
485;SDS011;229;48.734;9.340;2022-09-03T05:05:13;4.50;;;4.20;;
485;SDS011;229;48.734;9.340;2022-09-03T05:07:42;4.85;;;4.55;;
485;SDS011;229;48.734;9.340;2022-09-03T05:10:09;5.32;;;4.30;;
485;SDS011;229;48.734;9.340;2022-09-03T05:12:40;5.97;;;4.22;;
485;SDS011;229;48.734;9.340;2022-09-03T05:15:07;4.85;;;4.55;;
485;SDS011;229;48.734;9.340;2022-09-03T05:17:34;4.57;;;4.32;;
485;SDS011;229;48.734;9.340;2022-09-03T05:20:03;4.95;;;4.10;;
485;SDS011;229;48.734;9.340;2022-09-03T05:22:31;6.25;;;5.03;;
485;SDS011;229;48.734;9.340;2022-09-03T05:25:01;4.55;;;4.25;;
485;SDS011;229;48.734;9.340;2022-09-03T05:27:29;5.00;;;4.70;;
485;SDS011;229;48.734;9.340;2022-09-03T05:29:57;6.57;;;4.53;;
485;SDS011;229;48.734;9.340;2022-09-03T05:32:24;5.40;;;4.25;;
485;SDS011;229;48.734;9.340;2022-09-03T05:34:53;4.50;;;4.20;;
485;SDS011;229;48.734;9.340;2022-09-03T05:37:20;4.85;;;4.20;;
485;SDS011;229;48.734;9.340;2022-09-03T05:39:48;5.18;;;4.80;;
485;SDS011;229;48.734;9.340;2022-09-03T05:42:16;4.80;;;4.50;;
485;SDS011;229;48.734;9.340;2022-09-03T05:44:44;5.82;;;4.82;;
485;SDS011;229;48.734;9.340;2022-09-03T05:47:13;4.78;;;3.85;;
485;SDS011;229;48.734;9.340;2022-09-03T05:49:41;4.57;;;4.30;;
485;SDS011;229;48.734;9.340;2022-09-03T05:52:08;4.30;;;4.00;;
485;SDS011;229;48.734;9.340;2022-09-03T05:54:35;4.40;;;4.10;;
485;SDS011;229;48.734;9.340;2022-09-03T05:57:03;5.30;;;4.40;;
485;SDS011;229;48.734;9.340;2022-09-03T05:59:32;4.53;;;4.25;;
485;SDS011;229;48.734;9.340;2022-09-03T06:01:59;4.75;;;4.45;;
485;SDS011;229;48.734;9.340;2022-09-03T06:04:26;4.68;;;4.40;;
485;SDS011;229;48.734;9.340;2022-09-03T06:06:53;5.68;;;4.50;;
485;SDS011;229;48.734;9.340;2022-09-03T06:09:21;7.72;;;4.53;;
485;SDS011;229;48.734;9.340;2022-09-03T06:11:49;5.82;;;4.28;;
485;SDS011;229;48.734;9.340;2022-09-03T06:14:18;5.25;;;4.93;;
485;SDS011;229;48.734;9.340;2022-09-03T06:16:47;5.25;;;4.45;;
485;SDS011;229;48.734;9.340;2022-09-03T06:19:16;5.07;;;4.60;;
485;SDS011;229;48.734;9.340;2022-09-03T06:21:44;4.30;;;4.00;;
485;SDS011;229;48.734;9.340;2022-09-03T06:24:12;5.03;;;4.72;;
485;SDS011;229;48.734;9.340;2022-09-03T06:26:39;6.72;;;4.60;;
485;SDS011;229;48.734;9.340;2022-09-03T06:29:07;5.00;;;4.70;;
485;SDS011;229;48.734;9.340;2022-09-03T06:31:34;4.72;;;4.45;;
485;SDS011;229;48.734;9.340;2022-09-03T06:34:03;6.13;;;4.97;;
485;SDS011;229;48.734;9.340;2022-09-03T06:36:30;5.93;;;5.63;;
485;SDS011;229;48.734;9.340;2022-09-03T06:38:57;6.88;;;5.35;;
485;SDS011;229;48.734;9.340;2022-09-03T06:41:26;6.20;;;4.87;;
485;SDS011;229;48.734;9.340;2022-09-03T06:43:56;4.73;;;4.40;;
485;SDS011;229;48.734;9.340;2022-09-03T06:46:27;5.00;;;4.65;;
485;SDS011;229;48.734;9.340;2022-09-03T06:48:55;5.33;;;5.03;;
485;SDS011;229;48.734;9.340;2022-09-03T06:51:24;5.20;;;4.87;;
485;SDS011;229;48.734;9.340;2022-09-03T06:53:53;5.23;;;4.93;;
485;SDS011;229;48.734;9.340;2022-09-03T06:56:22;6.47;;;4.80;;
485;SDS011;229;48.734;9.340;2022-09-03T06:58:50;5.70;;;4.47;;
485;SDS011;229;48.734;9.340;2022-09-03T07:01:18;4.90;;;4.60;;
485;SDS011;229;48.734;9.340;2022-09-03T07:03:47;4.63;;;4.07;;
485;SDS011;229;48.734;9.340;2022-09-03T07:06:15;4.47;;;4.17;;
485;SDS011;229;48.734;9.340;2022-09-03T07:08:44;5.47;;;4.53;;
485;SDS011;229;48.734;9.340;2022-09-03T07:11:13;5.23;;;4.93;;
485;SDS011;229;48.734;9.340;2022-09-03T07:13:41;6.07;;;4.47;;
485;SDS011;229;48.734;9.340;2022-09-03T07:16:09;4.30;;;4.00;;
485;SDS011;229;48.734;9.340;2022-09-03T07:18:37;7.53;;;4.50;;
485;SDS011;229;48.734;9.340;2022-09-03T07:21:05;6.10;;;4.07;;
485;SDS011;229;48.734;9.340;2022-09-03T07:23:33;4.30;;;4.00;;
485;SDS011;229;48.734;9.340;2022-09-03T07:26:03;6.37;;;4.00;;
485;SDS011;229;48.734;9.340;2022-09-03T07:28:30;6.57;;;4.43;;
485;SDS011;229;48.734;9.340;2022-09-03T07:31:00;7.70;;;4.43;;
485;SDS011;229;48.734;9.340;2022-09-03T07:33:27;7.07;;;4.40;;
485;SDS011;229;48.734;9.340;2022-09-03T07:35:55;6.05;;;4.47;;
485;SDS011;229;48.734;9.340;2022-09-03T07:38:22;6.17;;;5.27;;
485;SDS011;229;48.734;9.340;2022-09-03T07:40:55;6.20;;;4.73;;
485;SDS011;229;48.734;9.340;2022-09-03T07:43:25;6.43;;;4.53;;
485;SDS011;229;48.734;9.340;2022-09-03T07:45:53;5.03;;;4.47;;
485;SDS011;229;48.734;9.340;2022-09-03T07:48:22;8.30;;;5.60;;
485;SDS011;229;48.734;9.340;2022-09-03T07:50:49;6.20;;;5.03;;
485;SDS011;229;48.734;9.340;2022-09-03T07:53:17;4.57;;;4.30;;
485;SDS011;229;48.734;9.340;2022-09-03T07:55:45;6.40;;;4.30;;
485;SDS011;229;48.734;9.340;2022-09-03T07:58:13;5.00;;;4.63;;
485;SDS011;229;48.734;9.340;2022-09-03T08:00:43;6.93;;;5.00;;
485;SDS011;229;48.734;9.340;2022-09-03T08:03:10;8.43;;;4.30;;
485;SDS011;229;48.734;9.340;2022-09-03T08:05:37;4.47;;;4.13;;
485;SDS011;229;48.734;9.340;2022-09-03T08:08:05;4.93;;;4.60;;
485;SDS011;229;48.734;9.340;2022-09-03T08:10:33;8.37;;;4.10;;
485;SDS011;229;48.734;9.340;2022-09-03T08:13:02;5.00;;;4.70;;
485;SDS011;229;48.734;9.340;2022-09-03T08:15:30;4.60;;;4.40;;
485;SDS011;229;48.734;9.340;2022-09-03T08:17:59;4.70;;;4.40;;
485;SDS011;229;48.734;9.340;2022-09-03T08:20:27;9.27;;;6.27;;
485;SDS011;229;48.734;9.340;2022-09-03T08:22:59;6.57;;;5.00;;
485;SDS011;229;48.734;9.340;2022-09-03T08:25:26;5.43;;;5.13;;
485;SDS011;229;48.734;9.340;2022-09-03T08:27:56;6.40;;;5.87;;
485;SDS011;229;48.734;9.340;2022-09-03T08:30:24;5.60;;;5.30;;
485;SDS011;229;48.734;9.340;2022-09-03T08:32:51;5.80;;;5.20;;
485;SDS011;229;48.734;9.340;2022-09-03T08:35:20;5.23;;;4.80;;
485;SDS011;229;48.734;9.340;2022-09-03T08:37:48;11.47;;;5.03;;
485;SDS011;229;48.734;9.340;2022-09-03T08:40:18;5.63;;;5.00;;
485;SDS011;229;48.734;9.340;2022-09-03T08:42:48;6.40;;;4.90;;
485;SDS011;229;48.734;9.340;2022-09-03T08:45:18;7.33;;;4.53;;
485;SDS011;229;48.734;9.340;2022-09-03T08:47:47;5.93;;;4.87;;
485;SDS011;229;48.734;9.340;2022-09-03T08:50:18;4.67;;;4.37;;
485;SDS011;229;48.734;9.340;2022-09-03T08:52:50;6.10;;;4.77;;
485;SDS011;229;48.734;9.340;2022-09-03T08:55:19;5.60;;;4.97;;
485;SDS011;229;48.734;9.340;2022-09-03T08:57:49;4.80;;;4.53;;
485;SDS011;229;48.734;9.340;2022-09-03T09:00:17;4.90;;;4.20;;
485;SDS011;229;48.734;9.340;2022-09-03T09:02:51;4.90;;;4.60;;
485;SDS011;229;48.734;9.340;2022-09-03T09:05:21;5.40;;;4.97;;
485;SDS011;229;48.734;9.340;2022-09-03T09:07:52;6.33;;;4.93;;
485;SDS011;229;48.734;9.340;2022-09-03T09:10:24;5.40;;;4.83;;
485;SDS011;229;48.734;9.340;2022-09-03T09:12:57;5.60;;;4.60;;
485;SDS011;229;48.734;9.340;2022-09-03T09:15:27;5.00;;;4.70;;
485;SDS011;229;48.734;9.340;2022-09-03T09:18:00;6.10;;;5.07;;
485;SDS011;229;48.734;9.340;2022-09-03T09:20:31;5.10;;;4.80;;
485;SDS011;229;48.734;9.340;2022-09-03T09:23:03;5.50;;;4.70;;
485;SDS011;229;48.734;9.340;2022-09-03T09:25:31;8.77;;;5.60;;
485;SDS011;229;48.734;9.340;2022-09-03T09:28:09;5.70;;;5.40;;
485;SDS011;229;48.734;9.340;2022-09-03T09:30:39;5.73;;;5.30;;
485;SDS011;229;48.734;9.340;2022-09-03T09:33:06;4.80;;;4.50;;
485;SDS011;229;48.734;9.340;2022-09-03T09:35:33;5.93;;;5.13;;
485;SDS011;229;48.734;9.340;2022-09-03T09:38:01;4.93;;;4.63;;
485;SDS011;229;48.734;9.340;2022-09-03T09:40:31;5.27;;;4.97;;
485;SDS011;229;48.734;9.340;2022-09-03T09:43:03;5.30;;;5.00;;
485;SDS011;229;48.734;9.340;2022-09-03T09:45:30;4.80;;;4.50;;
485;SDS011;229;48.734;9.340;2022-09-03T09:47:58;5.47;;;5.17;;
485;SDS011;229;48.734;9.340;2022-09-03T09:50:25;6.00;;;5.70;;
485;SDS011;229;48.734;9.340;2022-09-03T09:52:59;6.30;;;5.33;;
485;SDS011;229;48.734;9.340;2022-09-03T09:55:32;5.17;;;4.87;;
485;SDS011;229;48.734;9.340;2022-09-03T09:58:06;6.27;;;5.17;;
485;SDS011;229;48.734;9.340;2022-09-03T10:00:35;5.43;;;5.07;;
485;SDS011;229;48.734;9.340;2022-09-03T10:03:05;8.10;;;4.87;;
485;SDS011;229;48.734;9.340;2022-09-03T10:05:33;5.80;;;5.50;;
485;SDS011;229;48.734;9.340;2022-09-03T10:08:04;5.20;;;4.90;;
485;SDS011;229;48.734;9.340;2022-09-03T10:10:34;5.57;;;5.33;;
485;SDS011;229;48.734;9.340;2022-09-03T10:13:03;6.40;;;4.60;;
485;SDS011;229;48.734;9.340;2022-09-03T10:15:34;5.30;;;5.00;;
485;SDS011;229;48.734;9.340;2022-09-03T10:18:06;4.90;;;4.60;;
485;SDS011;229;48.734;9.340;2022-09-03T10:20:35;4.90;;;4.63;;
485;SDS011;229;48.734;9.340;2022-09-03T10:23:10;6.33;;;4.83;;
485;SDS011;229;48.734;9.340;2022-09-03T10:25:45;5.03;;;4.73;;
485;SDS011;229;48.734;9.340;2022-09-03T10:28:17;5.50;;;5.20;;
485;SDS011;229;48.734;9.340;2022-09-03T10:33:36;5.47;;;5.20;;
485;SDS011;229;48.734;9.340;2022-09-03T10:36:08;8.77;;;4.97;;
485;SDS011;229;48.734;9.340;2022-09-03T10:38:37;5.23;;;4.93;;
485;SDS011;229;48.734;9.340;2022-09-03T10:41:10;5.20;;;4.90;;
485;SDS011;229;48.734;9.340;2022-09-03T10:43:58;4.87;;;4.50;;
485;SDS011;229;48.734;9.340;2022-09-03T10:46:27;5.50;;;5.20;;
485;SDS011;229;48.734;9.340;2022-09-03T10:49:06;5.17;;;4.87;;
485;SDS011;229;48.734;9.340;2022-09-03T10:51:35;5.67;;;5.37;;
485;SDS011;229;48.734;9.340;2022-09-03T10:54:15;5.00;;;4.70;;
485;SDS011;229;48.734;9.340;2022-09-03T10:56:50;5.17;;;4.87;;
485;SDS011;229;48.734;9.340;2022-09-03T10:59:27;9.53;;;5.80;;
485;SDS011;229;48.734;9.340;2022-09-03T11:02:00;8.20;;;5.20;;
485;SDS011;229;48.734;9.340;2022-09-03T11:04:34;5.73;;;5.00;;
485;SDS011;229;48.734;9.340;2022-09-03T11:07:06;5.53;;;4.90;;
485;SDS011;229;48.734;9.340;2022-09-03T11:09:35;5.83;;;4.37;;
485;SDS011;229;48.734;9.340;2022-09-03T11:12:05;6.90;;;5.40;;
485;SDS011;229;48.734;9.340;2022-09-03T11:14:35;6.77;;;5.00;;
485;SDS011;229;48.734;9.340;2022-09-03T11:17:05;5.50;;;5.00;;
485;SDS011;229;48.734;9.340;2022-09-03T11:19:36;5.20;;;4.90;;
485;SDS011;229;48.734;9.340;2022-09-03T11:22:10;5.40;;;5.10;;
485;SDS011;229;48.734;9.340;2022-09-03T11:24:39;5.73;;;5.10;;
485;SDS011;229;48.734;9.340;2022-09-03T11:27:15;6.80;;;5.50;;
485;SDS011;229;48.734;9.340;2022-09-03T11:29:48;5.37;;;5.00;;
485;SDS011;229;48.734;9.340;2022-09-03T11:32:16;5.50;;;5.20;;
485;SDS011;229;48.734;9.340;2022-09-03T11:34:45;7.40;;;5.20;;
485;SDS011;229;48.734;9.340;2022-09-03T11:37:16;5.60;;;5.30;;
485;SDS011;229;48.734;9.340;2022-09-03T11:39:44;6.33;;;5.30;;
485;SDS011;229;48.734;9.340;2022-09-03T11:42:23;5.70;;;5.40;;
485;SDS011;229;48.734;9.340;2022-09-03T11:44:52;6.80;;;6.00;;
485;SDS011;229;48.734;9.340;2022-09-03T11:47:35;6.50;;;6.10;;
485;SDS011;229;48.734;9.340;2022-09-03T11:50:04;5.70;;;5.40;;
485;SDS011;229;48.734;9.340;2022-09-03T11:52:32;5.80;;;5.50;;
485;SDS011;229;48.734;9.340;2022-09-03T11:55:04;6.57;;;5.50;;
485;SDS011;229;48.734;9.340;2022-09-03T11:57:38;5.60;;;5.30;;
485;SDS011;229;48.734;9.340;2022-09-03T12:00:08;6.37;;;6.00;;
485;SDS011;229;48.734;9.340;2022-09-03T12:02:40;5.70;;;5.40;;
485;SDS011;229;48.734;9.340;2022-09-03T12:05:13;5.80;;;5.50;;
485;SDS011;229;48.734;9.340;2022-09-03T12:07:48;5.60;;;5.30;;
485;SDS011;229;48.734;9.340;2022-09-03T12:10:23;6.63;;;5.97;;
485;SDS011;229;48.734;9.340;2022-09-03T12:12:56;5.53;;;5.23;;
485;SDS011;229;48.734;9.340;2022-09-03T12:15:34;5.80;;;5.50;;
485;SDS011;229;48.734;9.340;2022-09-03T12:18:06;7.70;;;5.93;;
485;SDS011;229;48.734;9.340;2022-09-03T12:20:47;5.13;;;4.87;;
485;SDS011;229;48.734;9.340;2022-09-03T12:23:26;5.77;;;5.47;;
485;SDS011;229;48.734;9.340;2022-09-03T12:25:53;5.60;;;4.97;;
485;SDS011;229;48.734;9.340;2022-09-03T12:28:22;8.33;;;5.50;;
485;SDS011;229;48.734;9.340;2022-09-03T12:30:50;7.30;;;4.00;;
485;SDS011;229;48.734;9.340;2022-09-03T12:33:18;3.80;;;3.07;;
485;SDS011;229;48.734;9.340;2022-09-03T12:35:54;6.13;;;2.90;;
485;SDS011;229;48.734;9.340;2022-09-03T12:38:22;3.30;;;3.10;;
485;SDS011;229;48.734;9.340;2022-09-03T12:40:50;8.57;;;2.90;;
485;SDS011;229;48.734;9.340;2022-09-03T12:43:17;3.17;;;2.97;;
485;SDS011;229;48.734;9.340;2022-09-03T12:45:46;4.57;;;2.77;;
485;SDS011;229;48.734;9.340;2022-09-03T12:48:15;3.57;;;3.13;;
485;SDS011;229;48.734;9.340;2022-09-03T12:50:43;4.83;;;3.37;;
485;SDS011;229;48.734;9.340;2022-09-03T12:53:11;4.77;;;3.23;;
485;SDS011;229;48.734;9.340;2022-09-03T12:55:40;4.17;;;3.07;;
485;SDS011;229;48.734;9.340;2022-09-03T12:58:08;3.37;;;2.80;;
485;SDS011;229;48.734;9.340;2022-09-03T13:00:38;5.40;;;3.00;;
485;SDS011;229;48.734;9.340;2022-09-03T13:03:10;5.00;;;2.97;;
485;SDS011;229;48.734;9.340;2022-09-03T13:05:40;10.07;;;3.30;;
485;SDS011;229;48.734;9.340;2022-09-03T13:08:09;4.90;;;3.43;;
485;SDS011;229;48.734;9.340;2022-09-03T13:10:39;3.43;;;2.67;;
485;SDS011;229;48.734;9.340;2022-09-03T13:13:16;5.20;;;3.10;;
485;SDS011;229;48.734;9.340;2022-09-03T13:15:53;4.60;;;3.03;;
485;SDS011;229;48.734;9.340;2022-09-03T13:18:24;10.33;;;3.30;;
485;SDS011;229;48.734;9.340;2022-09-03T13:20:59;5.00;;;2.83;;
485;SDS011;229;48.734;9.340;2022-09-03T13:23:34;3.00;;;2.53;;
485;SDS011;229;48.734;9.340;2022-09-03T13:26:04;4.90;;;2.70;;
485;SDS011;229;48.734;9.340;2022-09-03T13:28:37;5.20;;;2.70;;
485;SDS011;229;48.734;9.340;2022-09-03T13:31:21;3.37;;;2.60;;
485;SDS011;229;48.734;9.340;2022-09-03T13:33:53;6.10;;;2.53;;
485;SDS011;229;48.734;9.340;2022-09-03T13:36:23;4.67;;;2.67;;
485;SDS011;229;48.734;9.340;2022-09-03T13:38:52;3.20;;;3.00;;
485;SDS011;229;48.734;9.340;2022-09-03T13:41:27;4.40;;;2.90;;
485;SDS011;229;48.734;9.340;2022-09-03T13:43:59;5.70;;;2.80;;
485;SDS011;229;48.734;9.340;2022-09-03T13:46:34;2.73;;;2.50;;
485;SDS011;229;48.734;9.340;2022-09-03T13:49:08;2.70;;;2.47;;
485;SDS011;229;48.734;9.340;2022-09-03T13:51:57;5.30;;;2.33;;
485;SDS011;229;48.734;9.340;2022-09-03T13:54:26;2.53;;;2.30;;
485;SDS011;229;48.734;9.340;2022-09-03T13:56:56;2.70;;;2.50;;
485;SDS011;229;48.734;9.340;2022-09-03T13:59:28;6.13;;;2.60;;
485;SDS011;229;48.734;9.340;2022-09-03T14:01:59;3.00;;;2.47;;
485;SDS011;229;48.734;9.340;2022-09-03T14:04:31;3.40;;;2.30;;
485;SDS011;229;48.734;9.340;2022-09-03T14:07:00;3.60;;;2.63;;
485;SDS011;229;48.734;9.340;2022-09-03T14:09:32;4.60;;;2.40;;
485;SDS011;229;48.734;9.340;2022-09-03T14:12:01;5.20;;;2.60;;
485;SDS011;229;48.734;9.340;2022-09-03T14:14:33;2.90;;;2.50;;
485;SDS011;229;48.734;9.340;2022-09-03T14:17:05;4.73;;;2.67;;
485;SDS011;229;48.734;9.340;2022-09-03T14:19:41;6.43;;;2.90;;
485;SDS011;229;48.734;9.340;2022-09-03T14:22:12;3.03;;;2.10;;
485;SDS011;229;48.734;9.340;2022-09-03T14:24:43;3.03;;;2.53;;
485;SDS011;229;48.734;9.340;2022-09-03T14:27:11;3.90;;;2.00;;
485;SDS011;229;48.734;9.340;2022-09-03T14:29:48;2.47;;;2.27;;
485;SDS011;229;48.734;9.340;2022-09-03T14:32:22;2.83;;;2.07;;
485;SDS011;229;48.734;9.340;2022-09-03T14:34:58;3.10;;;2.30;;
485;SDS011;229;48.734;9.340;2022-09-03T14:37:31;4.60;;;2.70;;
485;SDS011;229;48.734;9.340;2022-09-03T14:40:03;2.80;;;2.53;;
485;SDS011;229;48.734;9.340;2022-09-03T14:42:35;3.47;;;2.83;;
485;SDS011;229;48.734;9.340;2022-09-03T14:45:17;1.93;;;1.73;;
485;SDS011;229;48.734;9.340;2022-09-03T14:47:58;2.67;;;2.20;;
485;SDS011;229;48.734;9.340;2022-09-03T14:50:36;5.83;;;2.40;;
485;SDS011;229;48.734;9.340;2022-09-03T14:53:10;2.00;;;1.70;;
485;SDS011;229;48.734;9.340;2022-09-03T14:56:00;2.20;;;2.00;;
485;SDS011;229;48.734;9.340;2022-09-03T14:58:34;3.10;;;1.93;;
485;SDS011;229;48.734;9.340;2022-09-03T15:01:06;2.30;;;1.90;;
485;SDS011;229;48.734;9.340;2022-09-03T15:04:01;2.00;;;1.90;;
485;SDS011;229;48.734;9.340;2022-09-03T15:06:35;2.40;;;1.93;;
485;SDS011;229;48.734;9.340;2022-09-03T15:09:10;2.17;;;2.00;;
485;SDS011;229;48.734;9.340;2022-09-03T15:11:45;2.00;;;1.90;;
485;SDS011;229;48.734;9.340;2022-09-03T15:14:15;3.13;;;2.13;;
485;SDS011;229;48.734;9.340;2022-09-03T15:16:47;2.43;;;2.20;;
485;SDS011;229;48.734;9.340;2022-09-03T15:19:18;2.50;;;2.30;;
485;SDS011;229;48.734;9.340;2022-09-03T15:21:59;2.80;;;2.40;;
485;SDS011;229;48.734;9.340;2022-09-03T15:24:36;3.70;;;2.57;;
485;SDS011;229;48.734;9.340;2022-09-03T15:27:09;3.33;;;1.93;;
485;SDS011;229;48.734;9.340;2022-09-03T15:29:43;2.20;;;2.07;;
485;SDS011;229;48.734;9.340;2022-09-03T15:32:16;2.30;;;2.10;;
485;SDS011;229;48.734;9.340;2022-09-03T15:34:47;2.40;;;2.20;;
485;SDS011;229;48.734;9.340;2022-09-03T15:37:22;3.57;;;2.40;;
485;SDS011;229;48.734;9.340;2022-09-03T15:39:56;3.13;;;2.50;;
485;SDS011;229;48.734;9.340;2022-09-03T15:42:26;3.00;;;1.90;;
485;SDS011;229;48.734;9.340;2022-09-03T15:44:55;2.20;;;2.03;;
485;SDS011;229;48.734;9.340;2022-09-03T15:47:29;2.23;;;2.03;;
485;SDS011;229;48.734;9.340;2022-09-03T15:49:59;1.90;;;1.80;;
485;SDS011;229;48.734;9.340;2022-09-03T15:52:36;2.37;;;1.93;;
485;SDS011;229;48.734;9.340;2022-09-03T15:55:08;2.50;;;2.17;;
485;SDS011;229;48.734;9.340;2022-09-03T15:57:38;2.60;;;2.40;;
485;SDS011;229;48.734;9.340;2022-09-03T16:00:09;2.40;;;2.20;;
485;SDS011;229;48.734;9.340;2022-09-03T16:02:39;2.40;;;2.20;;
485;SDS011;229;48.734;9.340;2022-09-03T16:05:10;2.47;;;2.30;;
485;SDS011;229;48.734;9.340;2022-09-03T16:07:52;2.80;;;2.10;;
485;SDS011;229;48.734;9.340;2022-09-03T16:10:21;2.57;;;2.37;;
485;SDS011;229;48.734;9.340;2022-09-03T16:13:00;4.00;;;2.20;;